Newburgh, IN (47629)

8:29 AM CST on March 05, 2015 (GMT -0600)
0.5 Miles West Of Sharon School | Change Station
CLOSE
Current Station
Personal Weather Station
Location: Newburgh, IN
Elevation: 435 ft
Nearby Weather Stations
Active Advisory: Flood Warning Active Notice: Local Storm Report

Elev 435 ft 37.95 °N, 87.39 °W | Updated 21 seconds ago

Overcast
Overcast
19.2 °F
Feels Like 13 °F
N
4.6
Wind Variable Wind from NE
Gusts 8.1 mph

Today
High -- | Low -- °F
--% Chance of Precip.
Yesterday
High -- | Low -- °F
Precip. -- in
6:15 AM 5:46 PM
Full, 100% visible
Pressure 30.44 in
Visibility 10.0 miles
Clouds Overcast 10000 ft
Windchill 13 °F
Dew Point 7 °F
Humidity 58%
Rainfall in
Snow Depth Not available.
UV 0 out of 12
Pollen .70 out of 12
Air Quality Not available.
Flu Activity Not available.
METAR KEVV 051354Z 35011KT 10SM OVC100 M07/M14 A3042 RMK AO2 SLP307 T10721139 $

More Conditions Fewer Conditions

Pressure 30.44 in
Visibility 10.0 miles
Clouds Overcast 10000 ft
Windchill 13 °F
Dew Point 7 °F
Humidity 58%
Rainfall in
Snow Depth Not available.
UV 0 out of 12
Pollen .70 out of 12
Air Quality Not available.
Flu Activity Not available.
METAR KEVV 051354Z 35011KT 10SM OVC100 M07/M14 A3042 RMK AO2 SLP307 T10721139 $

More Conditions Fewer Conditions

10-Day Weather Forecast

Almanac

Astronomy

Mar. 05, 2015 Rise Set
Actual Time
Civil Twilight
Nautical Twilight
Astronomical Twilight
Moon
Length of Visible Light
Length of Day
Tomorrow will be .
, % of the Moon is Illuminated

Today's Extremes

State Highs State Lows

Community

WunderPhotos

Upload Photos

1,802,780 photos uploaded!

WunderBlogs® & News

Nearby

Air Quality

  Air Quality AQ Index Pollutant
Not available.

Snow Depth

Station Depth Elevation

Earthquake Activity

City Distance Mag. Time & Date
Minimum magnitude displayed is 2.5.

Coastal Water Temperatures

Place Temperature

Nearby Weather Stations

Flood Warning
Statement as of 9:18 PM CST on March 04, 2015

The Flood Warning continues for
the Ohio River at Newburgh dam
* from late Thursday night to Saturday March 14.
* At 7:00 PM Wednesday the stage was 27.7 feet.
* Flood stage is 38.0 feet.
* Minor flooding is forecast.
* Impact... at 46.0 feet... Highway 662 near the old lock and dam 47
begins to flood. This is approximately 1/2 mile downstream from the
current lock and dam.


Lat... Lon 3801 8745 3787 8745 3780 8728 3790 8721